Time;durP1;ratioP1;P1;durP2;ratioP2;P2;SDS_P1;SDS_P2;PMS_P1;PMS_P2;Temp;Humidity;BMP_temperature;BMP_pressure;BME280_temperature;BME280_humidity;BME280_pressure;Samples;Min_cycle;Max_cycle;Signal;HPM_P1;HPM_P2
2022/10/19 07:20:01;;;;;;;;;;;20.80;83.80;;;;;;5103208;27;19946;-82
2022/10/19 07:22:28;;;;;;;;;;;20.80;83.80;;;;;;5107575;27;19966;-80
2022/10/19 07:24:55;;;;;;;;;;;20.70;83.80;;;;;;5104851;27;19919;-80
2022/10/19 07:27:21;;;;;;;;;;;20.70;83.30;;;;;;5113170;27;19916;-79
2022/10/19 07:29:48;;;;;;;;;;;20.70;83.80;;;;;;5107289;27;19915;-81
2022/10/19 07:32:15;;;;;;;;;;;20.70;84.30;;;;;;5109655;28;19922;-83
2022/10/19 07:34:41;;;;;;;;;;;20.60;84.70;;;;;;5088949;28;20029;-83
2022/10/19 07:37:08;;;;;;;;;;;20.60;84.70;;;;;;5104334;28;19922;-82
2022/10/19 07:39:35;;;;;;;;;;;20.60;84.80;;;;;;5112736;27;19923;-83
2022/10/19 07:42:02;;;;;;;;;;;20.60;85.30;;;;;;5113677;27;19912;-84
2022/10/19 07:44:29;;;;;;;;;;;20.70;85.60;;;;;;5092396;28;19912;-84
2022/10/19 07:46:56;;;;;;;;;;;20.60;85.50;;;;;;5095206;28;20272;-86
2022/10/19 07:49:23;;;;;;;;;;;20.60;85.20;;;;;;5110953;28;19919;-84
2022/10/19 07:51:52;;;;;;;;;;;20.50;85.40;;;;;;5117433;27;20434;-84
2022/10/19 07:54:20;;;;;;;;;;;20.50;85.70;;;;;;5114736;27;20704;-82
2022/10/19 07:56:46;;;;;;;;;;;20.50;85.80;;;;;;5095859;27;20575;-83
2022/10/19 07:59:15;;;;;;;;;;;20.50;85.60;;;;;;5114795;27;19922;-83
2022/10/19 08:01:43;;;;;;;;;;;20.40;85.20;;;;;;5124155;27;19918;-83
2022/10/19 08:04:10;;;;;;;;;;;20.40;85.60;;;;;;5096186;28;19969;-85
2022/10/19 08:06:37;;;;;;;;;;;20.40;85.80;;;;;;5102525;27;19923;-84
2022/10/19 08:09:04;;;;;;;;;;;20.40;85.90;;;;;;5118424;27;19912;-83
2022/10/19 08:11:31;;;;;;;;;;;20.40;86.00;;;;;;5103448;27;19915;-83
2022/10/19 08:13:58;;;;;;;;;;;20.30;86.00;;;;;;5108263;28;19912;-82
2022/10/19 08:16:32;;;;;;;;;;;20.30;86.20;;;;;;5092309;28;19920;-83
2022/10/19 08:19:02;;;;;;;;;;;20.30;86.30;;;;;;5085019;28;20475;-83
2022/10/19 08:21:29;;;;;;;;;;;20.20;86.50;;;;;;5110883;27;19931;-83
2022/10/19 08:23:56;;;;;;;;;;;20.30;86.70;;;;;;5093503;28;20137;-85
2022/10/19 08:26:22;;;;;;;;;;;20.30;86.80;;;;;;5095792;27;19915;-84
2022/10/19 08:28:49;;;;;;;;;;;20.20;86.90;;;;;;5113143;27;20002;-83
2022/10/19 08:31:17;;;;;;;;;;;20.20;87.10;;;;;;5112109;27;19915;-82
2022/10/19 08:33:43;;;;;;;;;;;20.20;87.40;;;;;;5109769;28;19966;-82
2022/10/19 08:36:10;;;;;;;;;;;20.20;87.40;;;;;;5110103;28;20549;-79
2022/10/19 08:38:38;;;;;;;;;;;20.20;87.50;;;;;;5088403;28;19908;-79
2022/10/19 08:41:23;;;;;;;;;;;20.20;87.50;;;;;;5103430;28;19908;-78
2022/10/19 08:44:07;;;;;;;;;;;20.20;87.80;;;;;;5104540;28;19955;-77
2022/10/19 08:46:37;;;;;;;;;;;20.10;88.00;;;;;;5106982;28;19928;-78
2022/10/19 08:49:04;;;;;;;;;;;20.10;87.80;;;;;;5109981;28;20382;-79
2022/10/19 08:51:32;;;;;;;;;;;20.10;87.70;;;;;;5092180;28;20385;-79
2022/10/19 08:53:59;;;;;;;;;;;20.10;87.50;;;;;;5091649;28;19939;-85
2022/10/19 08:56:30;;;;;;;;;;;20.10;87.70;;;;;;5087131;28;19908;-79
2022/10/19 08:59:06;;;;;;;;;;;20.10;87.60;;;;;;5089084;28;20309;-79
2022/10/19 09:01:51;;;;;;;;;;;20.10;87.80;;;;;;5116559;27;19918;-79
2022/10/19 09:04:17;;;;;;;;;;;20.10;87.60;;;;;;5122366;27;19915;-79
2022/10/19 09:07:02;;;;;;;;;;;20.10;87.30;;;;;;5130855;27;19916;-82
2022/10/19 09:09:29;;;;;;;;;;;20.10;87.40;;;;;;5130644;28;20002;-84
2022/10/19 09:11:58;;;;;;;;;;;20.10;87.50;;;;;;5111905;28;20006;-81
2022/10/19 09:14:30;;;;;;;;;;;20.10;87.60;;;;;;5091859;28;19928;-82
2022/10/19 09:16:59;;;;;;;;;;;20.10;87.70;;;;;;5112476;28;19947;-82
2022/10/19 09:19:28;;;;;;;;;;;20.10;87.80;;;;;;5111515;28;20286;-83
2022/10/19 09:22:01;;;;;;;;;;;20.10;87.80;;;;;;5112579;28;19911;-80
2022/10/19 09:24:46;;;;;;;;;;;20.00;87.70;;;;;;5090704;28;19916;-82
2022/10/19 09:27:35;;;;;;;;;;;20.00;88.00;;;;;;5105530;28;19919;-82
2022/10/19 09:30:03;;;;;;;;;;;20.00;88.10;;;;;;5124235;28;19908;-83
2022/10/19 09:32:37;;;;;;;;;;;20.10;88.10;;;;;;5130427;28;20006;-82
2022/10/19 09:35:23;;;;;;;;;;;20.10;88.20;;;;;;5115863;28;20366;-89
2022/10/19 09:37:50;;;;;;;;;;;20.10;88.40;;;;;;5111730;28;19916;-83
2022/10/19 09:40:19;;;;;;;;;;;20.00;88.60;;;;;;5107108;28;19955;-86
2022/10/19 09:42:45;;;;;;;;;;;20.00;88.70;;;;;;5112380;28;19963;-80
2022/10/19 09:45:32;;;;;;;;;;;20.00;88.70;;;;;;5113578;28;19924;-88
2022/10/19 09:47:59;;;;;;;;;;;20.00;88.80;;;;;;5123312;28;19914;-88
2022/10/19 09:50:26;;;;;;;;;;;20.00;88.90;;;;;;5114803;28;19907;-88
2022/10/19 09:52:54;;;;;;;;;;;20.00;88.70;;;;;;5130796;28;19912;-88
2022/10/19 09:55:36;;;;;;;;;;;20.00;88.70;;;;;;5130464;28;19919;-88
2022/10/19 09:58:15;;;;;;;;;;;20.00;88.50;;;;;;5133196;28;19914;-88
2022/10/19 10:00:41;;;;;;;;;;;20.00;88.50;;;;;;5132914;28;19949;-89
2022/10/19 10:03:21;;;;;;;;;;;20.00;88.40;;;;;;5112481;28;20320;-88
2022/10/19 10:05:47;;;;;;;;;;;20.00;88.20;;;;;;5124469;28;19923;-87
2022/10/19 10:08:15;;;;;;;;;;;20.00;88.20;;;;;;5132589;28;20289;-89
2022/10/19 10:10:46;;;;;;;;;;;20.00;88.20;;;;;;5114493;28;19907;-87
2022/10/19 10:13:19;;;;;;;;;;;20.00;88.20;;;;;;5132582;28;19907;-88
2022/10/19 10:15:50;;;;;;;;;;;19.90;88.40;;;;;;5132793;28;19907;-89
2022/10/19 10:18:17;;;;;;;;;;;20.00;88.50;;;;;;5132560;27;19918;-88
2022/10/19 10:21:04;;;;;;;;;;;20.00;88.30;;;;;;5132398;28;19920;-89
2022/10/19 10:23:32;;;;;;;;;;;20.00;88.40;;;;;;5134571;27;19919;-89
2022/10/19 10:25:59;;;;;;;;;;;20.00;88.50;;;;;;5136130;27;19919;-89
2022/10/19 10:28:27;;;;;;;;;;;20.00;88.50;;;;;;5125512;27;19916;-84
2022/10/19 10:30:54;;;;;;;;;;;20.00;88.50;;;;;;5113364;27;19977;-82
2022/10/19 10:33:25;;;;;;;;;;;20.00;88.50;;;;;;5124727;27;19918;-84
2022/10/19 10:35:54;;;;;;;;;;;20.00;88.50;;;;;;5129491;27;20024;-85
2022/10/19 11:29:25;;;;;;;;;;;19.90;89.70;;;;;;5068868;28;20020;-89
2022/10/19 11:31:53;;;;;;;;;;;19.80;89.70;;;;;;5109151;28;19950;-87
2022/10/19 11:34:38;;;;;;;;;;;19.80;89.60;;;;;;5092773;28;19916;-86
2022/10/19 11:37:11;;;;;;;;;;;19.80;89.70;;;;;;5111703;28;20358;-87
2022/10/19 11:39:37;;;;;;;;;;;19.80;89.70;;;;;;5109754;28;19912;-88
2022/10/19 11:42:05;;;;;;;;;;;19.80;89.70;;;;;;5111211;28;20352;-85
2022/10/19 11:44:45;;;;;;;;;;;19.90;89.80;;;;;;5111427;28;19916;-86
2022/10/19 11:47:12;;;;;;;;;;;19.90;89.70;;;;;;5095204;28;19927;-83
2022/10/19 11:50:02;;;;;;;;;;;19.80;89.80;;;;;;5111781;28;19907;-84
2022/10/19 11:52:47;;;;;;;;;;;19.80;89.80;;;;;;5098270;28;19916;-87
2022/10/19 11:55:20;;;;;;;;;;;19.80;89.90;;;;;;5111622;28;19965;-85
2022/10/19 11:57:49;;;;;;;;;;;19.80;89.90;;;;;;5111129;28;19918;-85
2022/10/19 12:00:17;;;;;;;;;;;19.80;89.90;;;;;;5106936;28;19912;-84
2022/10/19 12:02:53;;;;;;;;;;;19.80;89.70;;;;;;5112433;27;19911;-85
2022/10/19 12:05:28;;;;;;;;;;;19.80;89.80;;;;;;5134259;27;20017;-85
2022/10/19 12:07:55;;;;;;;;;;;19.80;89.90;;;;;;5116004;27;20307;-85
2022/10/19 12:10:28;;;;;;;;;;;19.70;89.90;;;;;;5134491;27;19981;-85
2022/10/19 12:12:57;;;;;;;;;;;19.70;90.00;;;;;;5116123;27;19914;-85
2022/10/19 12:15:33;;;;;;;;;;;19.70;90.00;;;;;;5101374;28;19907;-85
2022/10/19 12:18:16;;;;;;;;;;;19.70;90.00;;;;;;5113467;28;19912;-85
2022/10/19 12:20:44;;;;;;;;;;;19.70;90.10;;;;;;5095146;28;19904;-85
2022/10/19 12:23:20;;;;;;;;;;;19.70;90.10;;;;;;5113737;28;19929;-84
2022/10/19 12:25:47;;;;;;;;;;;19.70;90.30;;;;;;5095383;28;20417;-84
2022/10/19 12:28:34;;;;;;;;;;;19.70;90.30;;;;;;5113770;28;19916;-85
2022/10/19 12:31:00;;;;;;;;;;;19.70;90.20;;;;;;5112832;28;19924;-84
2022/10/19 12:33:27;;;;;;;;;;;19.70;90.20;;;;;;5113303;28;19912;-84
2022/10/19 12:35:54;;;;;;;;;;;19.70;90.30;;;;;;5113070;28;19915;-84
2022/10/19 12:38:20;;;;;;;;;;;19.70;90.20;;;;;;5113164;28;19953;-85
2022/10/19 12:41:13;;;;;;;;;;;19.70;90.40;;;;;;5112980;28;19955;-85
2022/10/19 12:43:42;;;;;;;;;;;19.70;90.40;;;;;;5089628;28;19915;-85
2022/10/19 12:46:27;;;;;;;;;;;19.70;90.40;;;;;;5113081;28;19922;-85
2022/10/19 12:49:19;;;;;;;;;;;19.70;90.50;;;;;;5095135;28;19908;-85
2022/10/19 12:51:46;;;;;;;;;;;19.60;90.50;;;;;;5066968;28;19908;-85
2022/10/19 12:54:13;;;;;;;;;;;19.60;90.50;;;;;;5094755;28;19908;-84
2022/10/19 12:56:49;;;;;;;;;;;19.60;90.40;;;;;;5095034;28;19912;-84
2022/10/19 12:59:34;;;;;;;;;;;19.60;90.50;;;;;;5113026;28;20002;-85
2022/10/19 13:02:01;;;;;;;;;;;19.60;90.70;;;;;;5123750;27;20323;-84
2022/10/19 13:04:30;;;;;;;;;;;19.60;90.70;;;;;;5133258;27;19907;-85
2022/10/19 13:06:56;;;;;;;;;;;19.60;90.80;;;;;;5115300;28;20407;-85
2022/10/19 13:09:23;;;;;;;;;;;19.60;90.70;;;;;;5133094;28;19919;-84
2022/10/19 13:12:07;;;;;;;;;;;19.60;90.80;;;;;;5133652;27;20311;-84
2022/10/19 13:14:43;;;;;;;;;;;19.60;90.80;;;;;;5133232;28;20276;-84
2022/10/19 13:17:09;;;;;;;;;;;19.60;90.90;;;;;;5133201;28;19908;-84
2022/10/19 13:19:36;;;;;;;;;;;19.60;91.00;;;;;;5133094;28;19912;-85
2022/10/19 13:22:22;;;;;;;;;;;19.60;91.00;;;;;;5133231;27;19951;-83
2022/10/19 13:25:07;;;;;;;;;;;19.60;90.90;;;;;;5133054;28;19912;-85
2022/10/19 13:27:37;;;;;;;;;;;19.60;91.00;;;;;;5133174;28;20285;-84
2022/10/19 13:30:04;;;;;;;;;;;19.60;91.00;;;;;;5132708;28;19980;-85
2022/10/19 13:32:35;;;;;;;;;;;19.60;91.00;;;;;;5131221;28;19964;-85
2022/10/19 13:35:20;;;;;;;;;;;19.60;91.20;;;;;;5083168;28;20370;-85
2022/10/19 13:38:06;;;;;;;;;;;19.60;91.10;;;;;;5123395;28;19919;-84
2022/10/19 13:40:33;;;;;;;;;;;19.60;91.20;;;;;;5120972;28;19954;-85
2022/10/19 13:42:59;;;;;;;;;;;19.70;91.30;;;;;;5111047;28;19918;-85
2022/10/19 13:45:26;;;;;;;;;;;19.60;91.30;;;;;;5132643;28;20381;-85
2022/10/19 13:47:54;;;;;;;;;;;19.60;91.30;;;;;;5133164;28;19914;-85
2022/10/19 13:50:24;;;;;;;;;;;19.60;91.40;;;;;;5132612;27;19931;-84
2022/10/19 13:53:09;;;;;;;;;;;19.60;91.40;;;;;;5133151;28;19953;-85
2022/10/19 13:55:41;;;;;;;;;;;19.60;91.40;;;;;;5132955;28;19907;-84
2022/10/19 13:58:14;;;;;;;;;;;19.60;91.50;;;;;;5134704;27;19930;-84
2022/10/19 14:00:52;;;;;;;;;;;19.50;91.50;;;;;;5136739;27;19935;-85
2022/10/19 14:03:37;;;;;;;;;;;19.60;91.60;;;;;;5110786;27;19912;-84
2022/10/19 14:06:03;;;;;;;;;;;19.60;91.70;;;;;;5136574;27;20281;-83
2022/10/19 14:08:48;;;;;;;;;;;19.50;91.80;;;;;;5136487;27;19907;-84
2022/10/19 14:11:18;;;;;;;;;;;19.50;91.70;;;;;;5136981;27;20284;-84
2022/10/19 14:13:45;;;;;;;;;;;19.50;91.80;;;;;;5118516;27;19980;-85
2022/10/19 14:16:21;;;;;;;;;;;19.50;91.90;;;;;;5136444;27;19941;-85
2022/10/19 14:18:54;;;;;;;;;;;19.40;91.90;;;;;;5136786;27;19912;-84
2022/10/19 14:21:31;;;;;;;;;;;19.40;92.00;;;;;;5136610;27;19934;-84
2022/10/19 15:08:48;;;;;;;;;;;19.30;93.10;;;;;;5007581;28;1667602;-84
2022/10/19 15:11:23;;;;;;;;;;;19.30;93.00;;;;;;5117115;27;19918;-84
2022/10/19 15:13:52;;;;;;;;;;;19.30;93.00;;;;;;5106610;27;19911;-84
2022/10/19 15:16:26;;;;;;;;;;;19.30;93.00;;;;;;5116839;27;19907;-84
2022/10/19 15:18:53;;;;;;;;;;;19.30;92.90;;;;;;5116609;27;19969;-84
2022/10/19 15:21:20;;;;;;;;;;;19.30;92.90;;;;;;5135224;27;19918;-84
2022/10/19 15:23:47;;;;;;;;;;;19.30;93.00;;;;;;5135089;27;20414;-84
2022/10/19 15:26:17;;;;;;;;;;;19.30;93.00;;;;;;5134940;27;19939;-84
2022/10/19 15:28:43;;;;;;;;;;;19.30;93.10;;;;;;5107050;27;19907;-84
2022/10/19 15:31:14;;;;;;;;;;;19.30;93.10;;;;;;5108158;27;19995;-84
2022/10/19 15:33:45;;;;;;;;;;;19.30;93.30;;;;;;5134830;27;19907;-84
2022/10/19 15:36:20;;;;;;;;;;;19.30;93.30;;;;;;5134690;27;20327;-84
2022/10/19 15:38:47;;;;;;;;;;;19.30;93.20;;;;;;5134440;27;19912;-84
2022/10/19 15:41:17;;;;;;;;;;;19.30;93.20;;;;;;5134824;27;20384;-84
2022/10/19 15:43:51;;;;;;;;;;;19.30;93.20;;;;;;5134572;27;19915;-84
2022/10/19 15:46:19;;;;;;;;;;;19.30;93.20;;;;;;5116411;27;20339;-84
2022/10/19 15:48:47;;;;;;;;;;;19.30;93.20;;;;;;5134520;27;20378;-84
2022/10/19 15:51:23;;;;;;;;;;;19.30;93.20;;;;;;5134625;27;19908;-85
2022/10/19 15:53:53;;;;;;;;;;;19.30;93.20;;;;;;5134713;27;19908;-85
2022/10/19 15:56:20;;;;;;;;;;;19.30;93.20;;;;;;5134519;27;19915;-85
2022/10/19 15:58:50;;;;;;;;;;;19.30;93.20;;;;;;5116228;27;19925;-84
2022/10/19 16:01:17;;;;;;;;;;;19.30;93.20;;;;;;5115929;27;20280;-85
2022/10/19 16:03:44;;;;;;;;;;;19.20;93.30;;;;;;5134782;27;20000;-84
2022/10/19 16:06:11;;;;;;;;;;;19.30;93.20;;;;;;5134458;27;19920;-85
2022/10/19 16:08:38;;;;;;;;;;;19.30;93.30;;;;;;5116071;27;19954;-84
2022/10/19 16:11:04;;;;;;;;;;;19.20;93.10;;;;;;5134057;27;19968;-85
2022/10/19 16:13:31;;;;;;;;;;;19.20;93.10;;;;;;5134142;27;19991;-84
2022/10/19 16:16:03;;;;;;;;;;;19.20;93.20;;;;;;5134150;27;19907;-84
2022/10/19 16:18:29;;;;;;;;;;;19.20;93.20;;;;;;5115825;27;19952;-84
2022/10/19 16:20:56;;;;;;;;;;;19.10;93.20;;;;;;5115459;27;19915;-84
2022/10/19 16:23:23;;;;;;;;;;;19.00;93.30;;;;;;5115835;27;19912;-84
2022/10/19 16:25:49;;;;;;;;;;;19.10;93.40;;;;;;5133913;27;19930;-84
2022/10/19 16:28:16;;;;;;;;;;;19.10;93.50;;;;;;5133904;27;19907;-84
2022/10/19 16:30:43;;;;;;;;;;;19.00;93.50;;;;;;5133848;27;19907;-84
2022/10/19 16:33:09;;;;;;;;;;;19.00;93.50;;;;;;5134015;27;19916;-85
2022/10/19 16:35:39;;;;;;;;;;;19.00;93.60;;;;;;5115533;27;19914;-84
2022/10/19 16:38:05;;;;;;;;;;;19.00;93.60;;;;;;5115545;27;19914;-84
2022/10/19 16:40:32;;;;;;;;;;;19.00;93.50;;;;;;5114638;27;19969;-84
2022/10/19 16:42:59;;;;;;;;;;;19.00;93.60;;;;;;5133612;27;19907;-84
2022/10/19 16:45:26;;;;;;;;;;;19.00;93.60;;;;;;5133425;27;20441;-84
2022/10/19 16:47:53;;;;;;;;;;;19.00;93.50;;;;;;5133523;27;20028;-84
2022/10/19 16:50:19;;;;;;;;;;;18.90;93.60;;;;;;5133112;27;20412;-84
2022/10/19 16:52:46;;;;;;;;;;;18.90;93.60;;;;;;5115284;27;19907;-84
2022/10/19 16:55:13;;;;;;;;;;;19.00;93.70;;;;;;5133618;27;19970;-84
2022/10/19 16:57:39;;;;;;;;;;;19.00;93.70;;;;;;5122832;27;19912;-84
2022/10/19 17:00:08;;;;;;;;;;;18.90;93.70;;;;;;5133890;27;20019;-84
2022/10/19 17:02:34;;;;;;;;;;;18.90;93.90;;;;;;5133434;27;19961;-84
2022/10/19 17:05:01;;;;;;;;;;;19.00;94.10;;;;;;5133210;27;20365;-84
2022/10/19 17:07:28;;;;;;;;;;;19.00;94.00;;;;;;5114882;27;19994;-83
2022/10/19 17:09:54;;;;;;;;;;;19.00;93.80;;;;;;5133161;27;20396;-84
2022/10/19 17:12:21;;;;;;;;;;;19.00;93.80;;;;;;5133398;28;19916;-84
2022/10/19 17:14:47;;;;;;;;;;;19.00;93.90;;;;;;5133592;28;20409;-85
2022/10/19 17:17:15;;;;;;;;;;;18.90;93.90;;;;;;5133220;28;19911;-84
2022/10/19 17:19:42;;;;;;;;;;;19.00;93.90;;;;;;5115193;28;19907;-84
2022/10/19 17:22:09;;;;;;;;;;;18.90;93.90;;;;;;5133238;28;19908;-84
2022/10/19 17:24:37;;;;;;;;;;;18.90;93.90;;;;;;5104313;28;20378;-84
2022/10/19 17:27:04;;;;;;;;;;;19.00;94.00;;;;;;5133611;27;19924;-84
2022/10/19 17:29:31;;;;;;;;;;;19.00;94.00;;;;;;5114679;28;19922;-84
2022/10/19 17:31:58;;;;;;;;;;;18.90;93.90;;;;;;5114868;28;20319;-84
2022/10/19 17:34:24;;;;;;;;;;;18.90;93.90;;;;;;5118869;27;20415;-84
2022/10/19 17:36:51;;;;;;;;;;;18.90;93.90;;;;;;5111529;27;19964;-84
2022/10/19 17:39:18;;;;;;;;;;;19.00;93.90;;;;;;5131127;27;19964;-85
2022/10/19 17:41:45;;;;;;;;;;;19.00;93.90;;;;;;5137001;27;20002;-85
2022/10/19 17:44:12;;;;;;;;;;;19.00;93.90;;;;;;5134333;27;20392;-85
2022/10/19 17:46:38;;;;;;;;;;;19.00;93.90;;;;;;5117791;27;20400;-84
2022/10/19 17:49:05;;;;;;;;;;;19.00;93.90;;;;;;5123605;27;20377;-84
2022/10/19 17:51:32;;;;;;;;;;;19.00;93.70;;;;;;5118650;27;19923;-84
2022/10/19 17:54:00;;;;;;;;;;;19.00;93.80;;;;;;5115616;27;19919;-84
2022/10/19 17:56:27;;;;;;;;;;;19.10;93.70;;;;;;5117903;27;20002;-84
2022/10/19 17:58:53;;;;;;;;;;;19.10;93.70;;;;;;5123319;27;19915;-84
2022/10/19 18:01:20;;;;;;;;;;;19.10;93.60;;;;;;5119398;27;19953;-84
2022/10/19 18:03:47;;;;;;;;;;;19.10;93.60;;;;;;5100868;28;19994;-84
2022/10/19 18:06:13;;;;;;;;;;;19.10;93.70;;;;;;5097955;28;19920;-83
2022/10/19 18:08:41;;;;;;;;;;;19.10;93.60;;;;;;5115343;28;19912;-82
2022/10/19 18:11:09;;;;;;;;;;;19.00;93.60;;;;;;5115983;28;20014;-81
2022/10/19 18:13:36;;;;;;;;;;;19.00;93.70;;;;;;5098017;28;19911;-83
2022/10/19 18:16:06;;;;;;;;;;;19.10;93.70;;;;;;5116119;28;19998;-81
2022/10/19 18:18:33;;;;;;;;;;;19.10;93.70;;;;;;5115310;28;20319;-84
2022/10/19 18:21:03;;;;;;;;;;;19.20;93.70;;;;;;5097483;28;19919;-86
2022/10/19 18:23:29;;;;;;;;;;;19.10;93.60;;;;;;5112644;28;19912;-85
